createdAt,value
2023-04-24T00:01:59.316Z,92.80
2023-04-24T00:04:27.786Z,92.80
2023-04-24T00:06:58.295Z,92.80
2023-04-24T00:09:26.182Z,92.80
2023-04-24T00:11:54.587Z,92.80
2023-04-24T00:14:22.350Z,92.80
2023-04-24T00:16:50.125Z,92.80
2023-04-24T00:19:22.202Z,92.80
2023-04-24T00:21:51.116Z,92.90
2023-04-24T00:24:19.237Z,92.90
2023-04-24T00:26:46.990Z,92.90
2023-04-24T00:29:14.786Z,92.90
2023-04-24T00:31:42.641Z,92.90
2023-04-24T00:34:11.372Z,92.90
2023-04-24T00:36:41.111Z,92.90
2023-04-24T00:39:09.778Z,92.90
2023-04-24T00:41:37.699Z,92.90
2023-04-24T00:44:05.671Z,93.00
2023-04-24T00:46:33.776Z,93.00
2023-04-24T00:49:01.745Z,93.00
2023-04-24T00:51:29.482Z,92.90
2023-04-24T00:53:58.538Z,92.90
2023-04-24T00:56:26.354Z,92.90
2023-04-24T00:58:54.390Z,92.90
2023-04-24T01:01:23.031Z,93.00
2023-04-24T01:03:52.959Z,93.00
2023-04-24T01:06:22.257Z,93.00
2023-04-24T01:08:50.629Z,93.00
2023-04-24T01:11:20.591Z,93.00
2023-04-24T01:13:48.983Z,93.00
2023-04-24T01:16:18.302Z,93.00
2023-04-24T01:18:46.808Z,93.10
2023-04-24T01:21:15.923Z,93.00
2023-04-24T01:23:45.180Z,93.10
2023-04-24T01:26:13.327Z,93.10
2023-04-24T01:28:41.204Z,93.10
2023-04-24T01:31:09.009Z,93.10
2023-04-24T01:33:36.947Z,93.10
2023-04-24T01:36:05.283Z,93.20
2023-04-24T01:38:33.010Z,93.10
2023-04-24T01:41:02.444Z,93.00
2023-04-24T01:43:30.709Z,93.00
2023-04-24T01:45:58.457Z,93.10
2023-04-24T01:48:26.332Z,93.10
2023-04-24T01:50:54.032Z,93.00
2023-04-24T01:53:21.886Z,92.90
2023-04-24T01:55:49.609Z,93.00
2023-04-24T01:58:18.698Z,92.90
2023-04-24T02:00:46.464Z,92.80
2023-04-24T02:03:14.246Z,92.80
2023-04-24T02:05:42.367Z,92.80
2023-04-24T02:08:10.181Z,92.80
2023-04-24T02:10:37.940Z,92.70
2023-04-24T02:13:05.661Z,92.70
2023-04-24T02:15:34.770Z,92.60
2023-04-24T02:18:02.528Z,92.50
2023-04-24T02:20:30.302Z,92.50
2023-04-24T02:22:58.413Z,92.50
2023-04-24T02:25:26.311Z,92.50
2023-04-24T02:27:54.071Z,92.40
2023-04-24T02:30:21.858Z,92.90
2023-04-24T02:32:51.152Z,92.90
2023-04-24T02:35:19.056Z,92.90
2023-04-24T02:37:46.801Z,92.90
2023-04-24T02:40:14.759Z,92.90
2023-04-24T02:42:42.500Z,92.90
2023-04-24T02:45:10.920Z,92.90
2023-04-24T02:47:38.747Z,92.90
2023-04-24T02:50:09.517Z,92.90
2023-04-24T02:52:37.278Z,92.90
2023-04-24T02:55:05.604Z,92.90
2023-04-24T02:57:33.319Z,92.90
2023-04-24T03:00:01.244Z,92.90
2023-04-24T03:02:29.068Z,93.00
2023-04-24T03:04:57.970Z,93.00
2023-04-24T03:07:27.268Z,92.90
2023-04-24T03:09:54.983Z,92.90
2023-04-24T03:12:24.650Z,92.90
2023-04-24T03:14:52.380Z,92.90
2023-04-24T03:17:20.412Z,92.90
2023-04-24T03:19:48.139Z,92.90
2023-04-24T03:22:15.888Z,93.00
2023-04-24T03:24:44.961Z,93.00
2023-04-24T03:27:12.687Z,93.00
2023-04-24T03:29:40.698Z,93.30
2023-04-24T03:32:08.557Z,93.00
2023-04-24T03:34:36.300Z,93.00
2023-04-24T03:37:04.007Z,93.00
2023-04-24T03:39:31.747Z,93.00
2023-04-24T03:42:01.266Z,93.00
2023-04-24T03:44:28.995Z,93.00
2023-04-24T03:46:56.728Z,93.00
2023-04-24T03:49:24.470Z,93.00
2023-04-24T03:51:53.182Z,93.00
2023-04-24T03:54:21.283Z,93.10
2023-04-24T03:56:49.015Z,93.00
2023-04-24T03:59:18.158Z,93.00
2023-04-24T04:01:46.829Z,93.00
2023-04-24T04:04:14.837Z,93.00
2023-04-24T04:06:43.249Z,92.90
2023-04-24T04:09:11.368Z,92.90
2023-04-24T04:11:39.086Z,92.90
2023-04-24T04:14:06.989Z,92.90
2023-04-24T04:16:37.147Z,92.90
2023-04-24T04:19:05.074Z,93.00
2023-04-24T04:21:33.146Z,92.90
2023-04-24T04:24:00.876Z,92.90
2023-04-24T04:26:28.660Z,92.80
2023-04-24T04:28:56.626Z,92.80
2023-04-24T04:31:24.376Z,92.80
2023-04-24T04:33:53.453Z,92.80
2023-04-24T04:36:21.148Z,92.80
2023-04-24T04:38:49.418Z,92.80
2023-04-24T04:41:17.760Z,92.80
2023-04-24T04:43:45.546Z,92.80
2023-04-24T04:46:13.304Z,93.00
2023-04-24T04:48:41.316Z,92.90
2023-04-24T04:51:10.444Z,92.80
2023-04-24T04:53:38.184Z,92.80
2023-04-24T04:56:06.079Z,92.80
2023-04-24T04:58:33.843Z,92.80
2023-04-24T05:01:01.600Z,92.80
2023-04-24T05:03:29.506Z,92.90
2023-04-24T05:05:57.335Z,92.90
2023-04-24T05:08:27.791Z,92.90
2023-04-24T05:10:55.800Z,92.90
2023-04-24T05:13:35.702Z,92.90
2023-04-24T05:16:06.789Z,92.90
2023-04-24T05:18:34.596Z,92.90
2023-04-24T05:21:02.340Z,92.90
2023-04-24T05:23:31.509Z,92.90
2023-04-24T05:25:59.396Z,92.90
2023-04-24T05:28:29.130Z,92.90
2023-04-24T05:30:57.329Z,93.00
2023-04-24T05:33:25.115Z,93.00
2023-04-24T05:35:52.884Z,93.00
2023-04-24T05:38:20.834Z,93.00
2023-04-24T05:40:49.929Z,93.00
2023-04-24T05:43:17.645Z,92.90
2023-04-24T05:45:45.378Z,93.00
2023-04-24T05:48:13.079Z,93.00
2023-04-24T05:50:40.890Z,93.00
2023-04-24T05:53:08.897Z,93.00
2023-04-24T05:55:36.760Z,93.10
2023-04-24T05:58:05.860Z,93.10
2023-04-24T06:00:34.011Z,93.10
2023-04-24T06:03:04.680Z,93.10
2023-04-24T06:05:33.127Z,93.30
2023-04-24T06:08:00.938Z,93.30
2023-04-24T06:10:28.728Z,93.30
2023-04-24T06:13:01.055Z,93.30
2023-04-24T06:15:32.231Z,93.40
2023-04-24T06:18:00.409Z,93.50
2023-04-24T06:20:28.525Z,93.50
2023-04-24T06:22:56.533Z,93.50
2023-04-24T06:25:26.282Z,93.90
2023-04-24T06:27:54.014Z,93.60
2023-04-24T06:30:21.723Z,93.60
2023-04-24T06:32:50.879Z,93.70
2023-04-24T06:35:18.788Z,93.70
2023-04-24T06:37:46.562Z,93.70
2023-04-24T06:40:14.378Z,93.80
2023-04-24T06:42:42.112Z,93.80
2023-04-24T06:45:10.786Z,93.90
2023-04-24T06:47:38.847Z,93.90
2023-04-24T06:50:08.935Z,93.90
2023-04-24T06:52:36.708Z,94.30
2023-04-24T06:55:04.945Z,94.00
2023-04-24T06:57:32.977Z,94.00
2023-04-24T07:00:00.734Z,94.00
2023-04-24T07:02:28.637Z,94.10
2023-04-24T07:04:56.496Z,94.10
2023-04-24T07:07:25.726Z,94.10
2023-04-24T07:09:53.465Z,94.20
2023-04-24T07:12:22.586Z,94.50
2023-04-24T07:14:50.520Z,94.40
2023-04-24T07:17:18.280Z,94.40
2023-04-24T07:19:46.372Z,94.30
2023-04-24T07:22:17.684Z,94.30
2023-04-24T07:24:46.777Z,94.50
2023-04-24T07:27:15.819Z,94.40
2023-04-24T07:29:44.175Z,94.40
2023-04-24T07:32:12.266Z,94.50
2023-04-24T07:34:40.003Z,94.50
2023-04-24T07:37:07.756Z,94.60
2023-04-24T07:39:35.473Z,94.60
2023-04-24T07:42:05.212Z,94.60
2023-04-24T07:44:33.106Z,94.90
2023-04-24T07:47:00.854Z,94.70
2023-04-24T07:49:28.825Z,94.70
2023-04-24T07:51:56.542Z,94.70
2023-04-24T07:54:24.259Z,94.80
2023-04-24T07:56:52.035Z,94.70
2023-04-24T07:59:21.079Z,94.80
2023-04-24T08:01:48.801Z,95.10
2023-04-24T08:04:16.946Z,95.00
2023-04-24T08:06:44.778Z,95.10
2023-04-24T08:09:12.660Z,95.10
2023-04-24T08:11:40.478Z,95.10
2023-04-24T08:14:08.265Z,95.30
2023-04-24T08:16:37.594Z,94.90
2023-04-24T08:19:05.550Z,95.00
2023-04-24T08:21:33.498Z,94.90
2023-04-24T08:24:01.486Z,95.00
2023-04-24T08:26:29.256Z,95.10
2023-04-24T08:28:57.062Z,95.00
2023-04-24T08:31:25.932Z,95.10
2023-04-24T08:33:55.166Z,95.10
2023-04-24T08:36:26.374Z,95.10
2023-04-24T08:38:58.324Z,95.20
2023-04-24T08:41:27.137Z,95.10
2023-04-24T08:43:55.949Z,95.10
2023-04-24T08:46:24.520Z,95.20
2023-04-24T08:48:54.044Z,95.30
2023-04-24T08:51:24.535Z,95.20
2023-04-24T08:53:54.752Z,95.20
2023-04-24T08:56:24.304Z,95.20
2023-04-24T08:58:53.567Z,95.20
2023-04-24T09:01:21.949Z,95.30
2023-04-24T09:03:51.211Z,95.20
2023-04-24T09:06:21.245Z,95.30
2023-04-24T09:08:55.534Z,95.40
2023-04-24T09:11:25.213Z,95.40
2023-04-24T09:13:53.516Z,95.50
2023-04-24T09:16:24.120Z,95.50
2023-04-24T09:18:51.957Z,95.50
2023-04-24T09:21:21.872Z,95.70
2023-04-24T09:24:00.237Z,96.00
2023-04-24T09:26:27.982Z,96.00
2023-04-24T09:28:55.794Z,96.10
2023-04-24T09:31:24.109Z,96.20
2023-04-24T09:33:59.133Z,96.00
2023-04-24T09:36:30.728Z,96.00
2023-04-24T09:39:01.926Z,96.10
2023-04-24T09:41:30.709Z,96.60
2023-04-24T09:43:59.807Z,96.10
2023-04-24T09:46:34.030Z,96.30
2023-04-24T09:49:10.439Z,96.30
2023-04-24T09:51:39.537Z,96.40
2023-04-24T09:54:16.631Z,96.40
2023-04-24T09:56:46.071Z,96.20
2023-04-24T09:59:14.226Z,96.30
2023-04-24T10:01:45.309Z,96.40
2023-04-24T10:04:20.351Z,96.40
2023-04-24T10:06:50.606Z,96.40
2023-04-24T10:09:20.475Z,96.50
2023-04-24T10:11:50.670Z,96.50
2023-04-24T10:14:20.166Z,96.30
2023-04-24T10:16:48.726Z,96.70
2023-04-24T10:19:17.020Z,96.50
2023-04-24T10:21:47.454Z,96.50
2023-04-24T10:24:16.180Z,96.60
2023-04-24T10:26:46.107Z,96.50
2023-04-24T10:29:16.222Z,96.60
2023-04-24T10:31:46.803Z,96.60
2023-04-24T10:34:16.396Z,96.90
2023-04-24T10:36:49.131Z,96.90
2023-04-24T10:39:18.630Z,96.80
2023-04-24T10:41:48.110Z,96.70
2023-04-24T10:44:17.604Z,96.70
2023-04-24T10:46:46.677Z,96.70
2023-04-24T10:49:14.447Z,96.80
2023-04-24T10:51:50.007Z,97.30
2023-04-24T10:54:28.765Z,97.00
2023-04-24T10:57:33.935Z,97.30
2023-04-24T11:00:22.149Z,96.90
2023-04-24T11:02:51.771Z,96.70
2023-04-24T11:05:20.865Z,96.70
2023-04-24T11:08:12.714Z,97.00
2023-04-24T11:10:41.996Z,96.80
2023-04-24T11:13:12.680Z,97.10
2023-04-24T11:15:43.773Z,97.00
2023-04-24T11:18:16.355Z,96.80
2023-04-24T11:20:44.985Z,97.00
2023-04-24T11:23:14.748Z,97.30
2023-04-24T11:25:43.687Z,97.10
2023-04-24T11:28:18.020Z,96.90
2023-04-24T11:30:45.788Z,97.00
2023-04-24T11:33:23.150Z,97.00
2023-04-24T11:35:53.275Z,96.90
2023-04-24T11:38:24.685Z,97.10
2023-04-24T11:40:54.040Z,97.40
2023-04-24T11:43:22.942Z,97.20
2023-04-24T11:45:51.229Z,97.00
2023-04-24T11:48:23.361Z,97.00
2023-04-24T11:50:52.870Z,97.00
2023-04-24T11:53:21.670Z,97.00
2023-04-24T11:55:49.524Z,97.00
2023-04-24T11:58:22.295Z,97.10
2023-04-24T12:00:58.968Z,97.00
2023-04-24T12:03:28.381Z,97.10
2023-04-24T12:06:08.703Z,97.00
2023-04-24T12:08:38.281Z,97.00
2023-04-24T12:11:09.058Z,97.00
2023-04-24T12:13:37.678Z,96.90
2023-04-24T12:16:06.802Z,96.90
2023-04-24T12:18:36.012Z,96.90
2023-04-24T12:21:22.668Z,97.00
2023-04-24T12:23:51.688Z,96.80
2023-04-24T12:26:20.932Z,96.80
2023-04-24T12:28:50.925Z,96.80
2023-04-24T12:31:19.048Z,96.80
2023-04-24T12:33:48.196Z,96.80
2023-04-24T12:36:16.009Z,96.80
2023-04-24T12:38:47.385Z,96.80
2023-04-24T12:41:16.506Z,96.90
2023-04-24T12:43:54.334Z,97.10
2023-04-24T12:46:22.822Z,97.00
2023-04-24T12:48:52.674Z,97.00
2023-04-24T12:51:20.538Z,97.00
2023-04-24T12:53:48.361Z,96.90
2023-04-24T12:56:16.317Z,96.90
2023-04-24T12:58:44.103Z,96.80
2023-04-24T13:01:12.299Z,96.70
2023-04-24T13:03:40.560Z,96.70
2023-04-24T13:06:10.472Z,96.70
2023-04-24T13:08:38.312Z,96.70
2023-04-24T13:11:06.445Z,96.60
2023-04-24T13:13:34.248Z,96.10
2023-04-24T13:16:02.439Z,96.00
2023-04-24T13:18:30.243Z,96.00
2023-04-24T13:20:58.070Z,96.00
2023-04-24T13:23:27.235Z,95.90
2023-04-24T13:25:58.438Z,95.90
2023-04-24T13:28:26.508Z,95.90
2023-04-24T13:30:54.268Z,95.90
2023-04-24T13:33:22.075Z,95.80
2023-04-24T13:35:49.861Z,95.70
2023-04-24T13:38:17.646Z,95.70
2023-04-24T13:40:46.782Z,95.70
2023-04-24T13:43:15.018Z,95.70
2023-04-24T13:45:42.820Z,95.60
2023-04-24T13:48:10.921Z,95.60
2023-04-24T13:50:38.963Z,95.50
2023-04-24T13:53:06.729Z,95.40
2023-04-24T13:55:34.580Z,95.40
2023-04-24T13:58:04.157Z,95.50
2023-04-24T14:00:33.079Z,95.60
2023-04-24T14:03:01.901Z,95.20
2023-04-24T14:05:29.949Z,95.10
2023-04-24T14:07:57.820Z,95.10
2023-04-24T14:10:26.473Z,95.10
2023-04-24T14:12:54.363Z,95.10
2023-04-24T14:15:23.590Z,95.00
2023-04-24T14:17:51.609Z,94.60
2023-04-24T14:20:19.597Z,94.70
2023-04-24T14:22:47.593Z,94.80
2023-04-24T14:25:16.238Z,94.80
2023-04-24T14:27:44.289Z,94.50
2023-04-24T14:30:13.585Z,94.50
2023-04-24T14:32:42.752Z,94.50
2023-04-24T14:35:11.032Z,94.50
2023-04-24T14:37:41.971Z,94.40
2023-04-24T14:40:31.950Z,94.50
2023-04-24T14:42:59.158Z,94.70
2023-04-24T14:45:27.522Z,94.60
2023-04-24T14:47:57.491Z,94.50
2023-04-24T14:50:28.805Z,94.30
2023-04-24T14:52:58.249Z,94.10
2023-04-24T14:55:26.865Z,93.80
2023-04-24T14:57:54.718Z,93.80
2023-04-24T15:00:24.230Z,94.20
2023-04-24T15:02:52.442Z,94.20
2023-04-24T15:05:22.207Z,94.20
2023-04-24T15:07:50.330Z,94.20
2023-04-24T15:10:18.576Z,94.20
2023-04-24T15:12:46.953Z,94.20
2023-04-24T15:15:14.738Z,94.30
2023-04-24T15:17:42.546Z,94.30
2023-04-24T15:20:11.150Z,94.40
2023-04-24T15:22:40.295Z,94.20
2023-04-24T15:25:09.129Z,94.00
2023-04-24T15:27:44.078Z,94.00
2023-04-24T15:30:12.712Z,93.90
2023-04-24T15:32:41.423Z,93.70
2023-04-24T15:35:10.646Z,93.80
2023-04-24T15:37:40.457Z,93.70
2023-04-24T15:40:09.429Z,93.70
2023-04-24T15:42:37.431Z,93.80
2023-04-24T15:45:05.784Z,93.70
2023-04-24T15:47:34.509Z,93.60
2023-04-24T15:50:02.362Z,92.90
2023-04-24T15:52:30.240Z,93.30
2023-04-24T15:54:59.402Z,93.40
2023-04-24T15:57:27.334Z,93.30
2023-04-24T15:59:55.420Z,93.00
2023-04-24T16:02:24.086Z,93.00
2023-04-24T16:04:53.072Z,92.90
2023-04-24T16:07:20.945Z,92.60
2023-04-24T16:09:48.737Z,92.60
2023-04-24T16:12:18.292Z,92.60
2023-04-24T16:14:46.245Z,92.50
2023-04-24T16:17:14.373Z,92.70
2023-04-24T16:19:42.158Z,92.90
2023-04-24T16:22:10.017Z,92.90
2023-04-24T16:24:38.031Z,92.90
2023-04-24T16:27:06.235Z,92.90
2023-04-24T16:29:35.750Z,92.60
2023-04-24T16:32:03.601Z,92.60
2023-04-24T16:34:31.404Z,92.50
2023-04-24T16:36:59.657Z,92.60
2023-04-24T16:39:28.127Z,92.50
2023-04-24T16:41:59.039Z,92.20
2023-04-24T16:44:27.658Z,92.40
2023-04-24T16:46:57.069Z,92.50
2023-04-24T16:49:25.045Z,92.40
2023-04-24T16:51:52.854Z,92.30
2023-04-24T16:54:20.744Z,92.40
2023-04-24T16:56:48.746Z,92.40
2023-04-24T16:59:16.661Z,92.20
2023-04-24T17:01:44.449Z,92.40
2023-04-24T17:04:13.776Z,92.40
2023-04-24T17:06:41.786Z,92.60
2023-04-24T17:09:09.627Z,92.40
2023-04-24T17:11:37.553Z,92.40
2023-04-24T17:14:06.147Z,92.40
2023-04-24T17:16:34.038Z,92.50
2023-04-24T17:19:02.024Z,92.30
2023-04-24T17:21:31.524Z,92.30
2023-04-24T17:23:59.471Z,92.10
2023-04-24T17:26:27.553Z,92.00
2023-04-24T17:28:55.860Z,92.30
2023-04-24T17:31:23.701Z,92.30
2023-04-24T17:33:51.560Z,92.30
2023-04-24T17:36:19.490Z,92.20
2023-04-24T17:38:48.970Z,92.20
2023-04-24T17:41:17.032Z,92.30
2023-04-24T17:43:45.599Z,92.40
2023-04-24T17:46:13.641Z,92.20
2023-04-24T17:48:41.486Z,92.20
2023-04-24T17:51:09.321Z,92.20
2023-04-24T17:53:37.115Z,92.10
2023-04-24T17:56:07.006Z,92.10
2023-04-24T17:58:34.921Z,92.20
2023-04-24T18:01:03.063Z,92.20
2023-04-24T18:03:31.206Z,92.20
2023-04-24T18:05:59.200Z,92.00
2023-04-24T18:08:27.050Z,92.20
2023-04-24T18:10:54.906Z,92.30
2023-04-24T18:13:24.065Z,92.30
2023-04-24T18:15:51.887Z,92.30
2023-04-24T18:18:19.801Z,92.30
2023-04-24T18:20:47.640Z,92.80
2023-04-24T18:23:15.416Z,93.10
2023-04-24T18:25:43.244Z,92.90
2023-04-24T18:28:11.446Z,92.90
2023-04-24T18:30:40.677Z,92.80
2023-04-24T18:33:08.576Z,92.90
2023-04-24T18:35:36.458Z,92.90
2023-04-24T18:38:04.255Z,92.90
2023-04-24T18:40:32.275Z,92.80
2023-04-24T18:43:00.073Z,92.90
2023-04-24T18:45:27.897Z,93.00
2023-04-24T18:47:57.080Z,93.00
2023-04-24T18:50:25.653Z,93.00
2023-04-24T18:52:53.492Z,93.00
2023-04-24T18:55:21.434Z,93.00
2023-04-24T18:57:49.205Z,93.00
2023-04-24T19:00:17.854Z,93.10
2023-04-24T19:02:45.724Z,93.10
2023-04-24T19:05:14.892Z,93.10
2023-04-24T19:07:42.898Z,93.00
2023-04-24T19:10:11.483Z,92.90
2023-04-24T19:12:39.594Z,93.00
2023-04-24T19:15:11.486Z,93.10
2023-04-24T19:17:39.358Z,93.10
2023-04-24T19:20:08.444Z,93.00
2023-04-24T19:22:37.640Z,93.10
2023-04-24T19:25:06.257Z,93.10
2023-04-24T19:27:34.047Z,93.10
2023-04-24T19:30:01.894Z,93.10
2023-04-24T19:32:29.844Z,93.10
2023-04-24T19:34:57.702Z,93.10
2023-04-24T19:37:25.613Z,93.10
2023-04-24T19:39:54.891Z,93.00
2023-04-24T19:42:31.905Z,93.00
2023-04-24T19:45:04.336Z,93.00
2023-04-24T19:47:32.118Z,93.00
2023-04-24T19:50:00.146Z,93.10
2023-04-24T19:52:28.290Z,93.10
2023-04-24T19:54:57.524Z,93.10
2023-04-24T19:57:25.310Z,93.10
2023-04-24T19:59:53.105Z,93.10
2023-04-24T20:02:20.993Z,93.20
2023-04-24T20:04:49.055Z,93.20
2023-04-24T20:07:16.996Z,93.20
2023-04-24T20:09:44.858Z,93.20
2023-04-24T20:12:14.016Z,93.20
2023-04-24T20:14:41.865Z,93.20
2023-04-24T20:17:09.794Z,93.20
2023-04-24T20:19:38.866Z,93.30
2023-04-24T20:22:06.741Z,93.30
2023-04-24T20:24:34.564Z,93.40
2023-04-24T20:27:02.649Z,93.30
2023-04-24T20:29:31.824Z,93.30
2023-04-24T20:31:59.834Z,93.30
2023-04-24T20:34:27.698Z,93.30
2023-04-24T20:36:56.558Z,93.30
2023-04-24T20:39:24.388Z,93.30
2023-04-24T20:41:52.385Z,93.30
2023-04-24T20:44:20.277Z,93.40
2023-04-24T20:46:49.525Z,93.40
2023-04-24T20:49:17.337Z,93.40
2023-04-24T20:51:45.115Z,93.50
2023-04-24T20:54:12.901Z,93.40
2023-04-24T20:56:40.798Z,93.40
2023-04-24T20:59:08.590Z,93.40
2023-04-24T21:01:36.396Z,93.40
2023-04-24T21:04:05.598Z,93.30
2023-04-24T21:06:33.445Z,93.40
2023-04-24T21:09:01.185Z,93.30
2023-04-24T21:11:28.910Z,93.40
2023-04-24T21:13:56.637Z,93.30
2023-04-24T21:16:24.427Z,93.40
2023-04-24T21:18:52.243Z,93.40
2023-04-24T21:21:21.300Z,93.40
2023-04-24T21:23:49.290Z,93.40
2023-04-24T21:26:17.673Z,93.40
2023-04-24T21:28:45.573Z,93.40
2023-04-24T21:31:13.288Z,93.50
2023-04-24T21:33:41.008Z,93.50
2023-04-24T21:36:09.188Z,93.50
2023-04-24T21:38:39.791Z,93.50
2023-04-24T21:41:07.543Z,93.50
2023-04-24T21:43:50.392Z,93.50
2023-04-24T21:46:18.627Z,93.50
2023-04-24T21:48:46.416Z,93.60
2023-04-24T21:51:14.391Z,93.60
2023-04-24T21:53:43.436Z,93.60
2023-04-24T21:56:11.576Z,93.60
2023-04-24T21:58:39.788Z,93.70
2023-04-24T22:01:07.747Z,93.70
2023-04-24T22:03:35.784Z,93.80
2023-04-24T22:06:03.735Z,93.80
2023-04-24T22:08:31.456Z,93.70
2023-04-24T22:11:01.051Z,93.70
2023-04-24T22:13:28.852Z,93.70
2023-04-24T22:15:56.679Z,93.70
2023-04-24T22:18:30.542Z,93.80
2023-04-24T22:21:05.259Z,93.80
2023-04-24T22:23:33.246Z,93.80
2023-04-24T22:26:02.287Z,93.70
2023-04-24T22:28:30.110Z,93.70
2023-04-24T22:30:58.255Z,93.70
2023-04-24T22:33:26.003Z,93.80
2023-04-24T22:35:53.720Z,93.80
2023-04-24T22:38:21.437Z,93.90
2023-04-24T22:40:49.193Z,93.90
2023-04-24T22:43:18.343Z,94.00
2023-04-24T22:45:46.119Z,94.00
2023-04-24T22:48:13.830Z,93.90
2023-04-24T22:50:42.298Z,94.00
2023-04-24T22:53:10.074Z,93.90
2023-04-24T22:55:37.872Z,93.90
2023-04-24T22:58:06.291Z,94.30
2023-04-24T23:00:35.382Z,93.90
2023-04-24T23:03:03.236Z,93.90
2023-04-24T23:05:31.939Z,93.90
2023-04-24T23:07:59.663Z,93.90
2023-04-24T23:10:27.399Z,93.80
2023-04-24T23:12:55.126Z,93.80
2023-04-24T23:15:22.910Z,93.90
2023-04-24T23:17:51.991Z,93.80
2023-04-24T23:20:19.786Z,93.80
2023-04-24T23:22:47.521Z,93.80
2023-04-24T23:25:15.753Z,93.80
2023-04-24T23:27:43.462Z,93.80
2023-04-24T23:30:11.677Z,93.80
2023-04-24T23:32:39.428Z,93.80
2023-04-24T23:35:09.679Z,93.80
2023-04-24T23:37:38.297Z,93.80
2023-04-24T23:40:07.675Z,93.90
2023-04-24T23:42:35.569Z,93.90
2023-04-24T23:45:03.421Z,93.90
2023-04-24T23:47:31.302Z,94.00
2023-04-24T23:49:59.044Z,94.00
2023-04-24T23:52:28.205Z,93.90
2023-04-24T23:54:55.935Z,93.90
2023-04-24T23:57:23.673Z,93.90
2023-04-24T23:59:51.387Z,93.90
